Time;durP1;ratioP1;P1;durP2;ratioP2;P2;SDS_P1;SDS_P2;PMS_P1;PMS_P2;Temp;Humidity;BMP_temperature;BMP_pressure;BME280_temperature;BME280_humidity;BME280_pressure;Samples;Min_cycle;Max_cycle;Signal;HPM_P1;HPM_P2
2022/02/01 00:02:01;;;;;;;12.73;11.55;;;29.00;99.90;;;;;;5053319;28;20104;-66
2022/02/01 00:07:35;;;;;;;11.43;10.43;;;28.90;99.90;;;;;;5053841;28;20039;-66
2022/02/01 00:10:11;;;;;;;12.25;8.20;;;29.10;99.90;;;;;;5053998;28;20116;-66
2022/02/01 00:12:52;;;;;;;14.05;9.27;;;29.40;99.90;;;;;;5054189;28;20028;-67
2022/02/01 00:16:00;;;;;;;9.90;8.88;;;29.60;99.90;;;;;;5054195;28;20060;-67
2022/02/01 00:35:25;;;;;;;10.43;8.65;;;30.10;99.90;;;;;;5053277;28;20113;-67
2022/02/01 00:37:24;;;;;;;13.95;9.70;;;30.20;99.90;;;;;;5045276;28;20459;-67
2022/02/01 00:39:57;;;;;;;13.30;9.18;;;30.40;99.90;;;;;;5050765;28;20059;-67
2022/02/01 00:42:25;;;;;;;12.90;9.83;;;30.30;99.90;;;;;;5051366;28;20067;-65
2022/02/01 00:44:52;;;;;;;12.48;9.23;;;30.50;99.90;;;;;;5053421;28;20461;-67
2022/02/01 00:47:19;;;;;;;10.85;9.60;;;30.50;99.90;;;;;;5046375;28;20071;-67
2022/02/01 00:49:47;;;;;;;13.63;10.80;;;30.60;99.90;;;;;;5033261;28;20477;-67
2022/02/01 00:52:14;;;;;;;13.57;10.50;;;30.60;99.90;;;;;;5039879;28;20469;-67
2022/02/01 00:54:41;;;;;;;11.27;10.02;;;30.60;99.90;;;;;;5053090;28;20071;-67
2022/02/01 00:57:11;;;;;;;12.13;10.18;;;30.60;99.90;;;;;;5052408;28;20024;-66
2022/02/01 00:59:38;;;;;;;12.68;10.57;;;30.70;99.90;;;;;;5053126;28;20025;-67
2022/02/01 01:02:06;;;;;;;12.30;10.63;;;30.70;99.90;;;;;;5052341;28;20032;-66
2022/02/01 01:04:34;;;;;;;12.00;10.75;;;30.70;99.90;;;;;;5053339;28;20036;-66
2022/02/01 01:07:01;;;;;;;12.82;10.57;;;31.00;99.90;;;;;;5052437;28;20029;-66
2022/02/01 01:09:28;;;;;;;12.10;10.70;;;31.10;99.90;;;;;;5053870;28;20056;-66
2022/02/01 01:11:58;;;;;;;11.32;10.27;;;31.20;99.90;;;;;;5052570;28;20025;-65
2022/02/01 01:55:49;;;;;;;11.07;8.23;;;32.60;99.90;;;;;;5050545;28;20060;-67
2022/02/01 01:58:17;;;;;;;8.70;7.78;;;32.80;99.90;;;;;;5046821;28;20036;-67
2022/02/01 02:03:15;;;;;;;7.03;6.32;;;32.70;99.90;;;;;;5050923;28;20059;-67
2022/02/01 02:05:42;;;;;;;9.70;7.40;;;32.80;99.90;;;;;;5035574;28;20063;-67
2022/02/01 02:08:11;;;;;;;7.20;6.50;;;32.70;99.90;;;;;;5050007;28;20040;-67
2022/02/01 02:10:49;;;;;;;9.68;6.88;;;32.70;99.90;;;;;;5047205;28;20029;-67
2022/02/01 02:15:58;;;;;;;7.90;6.57;;;33.00;99.90;;;;;;5052332;28;20033;-66
2022/02/01 02:18:28;;;;;;;9.65;6.15;;;33.10;99.90;;;;;;5051336;28;20063;-67
2022/02/01 02:21:00;;;;;;;10.30;6.65;;;33.20;99.90;;;;;;5052247;28;20025;-67
2022/02/01 02:23:28;;;;;;;6.95;5.95;;;33.10;99.90;;;;;;5051391;28;20029;-67
2022/02/01 02:25:56;;;;;;;6.30;5.28;;;33.00;99.90;;;;;;5052074;28;20032;-67
2022/02/01 02:28:25;;;;;;;10.02;5.85;;;33.10;99.90;;;;;;5051472;28;20049;-66
2022/02/01 02:30:53;;;;;;;9.13;5.63;;;33.30;99.90;;;;;;5054513;28;20025;-67
2022/02/01 02:33:21;;;;;;;8.27;5.80;;;33.60;99.90;;;;;;5040948;28;20083;-66
2022/02/01 02:36:06;;;;;;;9.77;5.40;;;33.30;99.90;;;;;;5053339;28;20502;-67
2022/02/01 02:46:57;;;;;;;7.88;5.60;;;33.40;99.90;;;;;;5021644;28;20053;-67
2022/02/01 02:49:25;;;;;;;7.65;5.93;;;33.20;99.90;;;;;;5035393;28;20505;-67
2022/02/01 02:51:52;;;;;;;9.30;5.72;;;33.00;99.90;;;;;;5038394;28;20031;-67
2022/02/01 02:54:23;;;;;;;6.75;5.00;;;33.10;99.90;;;;;;5054978;28;20029;-67
2022/02/01 02:57:02;;;;;;;5.22;4.70;;;33.40;99.90;;;;;;5054385;28;20362;-67
2022/02/01 02:59:30;;;;;;;6.53;5.15;;;33.50;99.90;;;;;;5054243;28;20029;-67
2022/02/01 03:01:59;;;;;;;6.75;5.00;;;33.50;99.90;;;;;;5054236;28;20043;-67
2022/02/01 03:04:30;;;;;;;6.50;4.95;;;33.50;99.90;;;;;;5054504;28;20559;-67
2022/02/01 03:06:59;;;;;;;11.75;6.18;;;33.50;99.90;;;;;;5053987;28;20021;-67
2022/02/01 03:09:27;;;;;;;9.20;5.57;;;33.10;99.90;;;;;;5054876;28;20127;-67
2022/02/01 03:11:58;;;;;;;8.32;5.70;;;32.90;99.90;;;;;;5053769;28;20061;-67
2022/02/01 03:14:27;;;;;;;8.52;4.63;;;32.80;99.90;;;;;;5053873;28;20068;-67
2022/02/01 03:22:34;;;;;;;7.93;5.55;;;33.00;99.90;;;;;;5049903;28;20537;-67
2022/02/01 03:25:04;;;;;;;8.35;5.32;;;33.30;99.90;;;;;;5055033;28;20082;-67
2022/02/01 03:27:32;;;;;;;6.75;4.72;;;33.30;99.90;;;;;;5053631;28;20132;-67
2022/02/01 03:29:59;;;;;;;7.82;5.40;;;33.30;99.90;;;;;;5053783;28;20029;-67
2022/02/01 03:32:27;;;;;;;8.60;5.15;;;33.00;99.90;;;;;;5052100;28;20017;-67
2022/02/01 03:34:54;;;;;;;6.95;5.03;;;32.70;99.90;;;;;;5053781;28;20036;-67
2022/02/01 03:37:22;;;;;;;9.75;5.47;;;32.30;99.90;;;;;;5053358;28;20082;-67
2022/02/01 03:39:50;;;;;;;8.48;5.03;;;31.50;99.90;;;;;;5053881;28;20043;-67
2022/02/01 03:42:20;;;;;;;7.07;5.13;;;31.60;99.90;;;;;;5050486;28;20032;-67
2022/02/01 03:44:48;;;;;;;7.88;4.93;;;31.50;99.90;;;;;;5055074;28;20025;-67
2022/02/01 03:47:16;;;;;;;7.80;5.53;;;31.30;99.90;;;;;;5053363;28;20029;-67
2022/02/01 03:49:43;;;;;;;10.18;5.05;;;31.40;99.90;;;;;;5054899;28;20021;-67
2022/02/01 03:52:12;;;;;;;11.27;5.20;;;31.20;99.90;;;;;;5053901;28;20059;-67
2022/02/01 03:54:40;;;;;;;10.23;4.82;;;31.00;99.90;;;;;;5054184;28;20075;-67
2022/02/01 03:57:11;;;;;;;12.20;5.82;;;31.40;99.90;;;;;;5051695;28;20032;-67
2022/02/01 03:59:39;;;;;;;7.07;5.10;;;31.50;99.90;;;;;;5034119;28;20036;-67
2022/02/01 04:02:06;;;;;;;17.98;6.78;;;31.50;99.90;;;;;;5051592;28;20025;-67
2022/02/01 04:04:34;;;;;;;18.10;6.18;;;31.30;99.90;;;;;;5054164;28;20035;-67
2022/02/01 04:07:06;;;;;;;16.80;6.38;;;31.00;99.90;;;;;;5052660;28;20076;-67
2022/02/01 04:09:35;;;;;;;14.50;4.93;;;30.80;99.90;;;;;;5053959;28;20033;-67
2022/02/01 04:12:05;;;;;;;10.82;4.82;;;30.60;99.90;;;;;;5052986;28;20021;-67
2022/02/01 04:14:34;;;;;;;13.93;5.18;;;30.40;99.90;;;;;;5052856;28;20036;-67
2022/02/01 04:17:06;;;;;;;12.52;5.40;;;30.50;99.90;;;;;;5053605;28;20024;-67
2022/02/01 04:19:34;;;;;;;10.20;5.68;;;30.40;99.90;;;;;;5053670;28;20064;-67
2022/02/01 04:22:03;;;;;;;8.80;4.72;;;30.40;99.90;;;;;;5049072;28;20025;-67
2022/02/01 04:24:38;;;;;;;13.57;4.88;;;30.40;99.90;;;;;;5033467;28;20453;-67
2022/02/01 04:27:07;;;;;;;20.30;5.63;;;30.30;99.90;;;;;;5038438;28;20045;-67
2022/02/01 04:29:39;;;;;;;14.38;5.72;;;30.40;99.90;;;;;;5053457;28;20029;-67
2022/02/01 04:32:07;;;;;;;14.90;5.50;;;30.40;99.90;;;;;;5048803;28;20483;-67
2022/02/01 04:34:34;;;;;;;11.07;4.95;;;30.30;99.90;;;;;;5033339;28;20386;-67
2022/02/01 04:37:01;;;;;;;11.02;5.50;;;30.40;99.90;;;;;;5051261;28;20377;-67
2022/02/01 04:39:29;;;;;;;13.18;5.35;;;30.40;99.90;;;;;;5052296;28;20074;-67
2022/02/01 04:41:56;;;;;;;13.65;5.13;;;30.40;99.90;;;;;;5051540;28;20032;-67
2022/02/01 04:44:26;;;;;;;14.00;5.32;;;30.30;99.90;;;;;;5053236;28;20029;-67
2022/02/01 04:46:53;;;;;;;10.73;5.88;;;30.30;99.90;;;;;;5052492;28;20139;-67
2022/02/01 04:49:20;;;;;;;10.65;5.05;;;30.40;99.90;;;;;;5051363;28;20104;-67
2022/02/01 04:51:48;;;;;;;11.38;5.75;;;30.60;99.90;;;;;;5051954;28;20519;-67
2022/02/01 04:54:15;;;;;;;10.55;5.18;;;30.80;99.90;;;;;;5051660;28;20064;-67
2022/02/01 04:56:42;;;;;;;12.15;5.53;;;30.90;99.90;;;;;;5051756;28;20040;-67
2022/02/01 04:59:09;;;;;;;11.85;5.32;;;30.90;99.90;;;;;;5052862;28;20063;-67
2022/02/01 05:01:39;;;;;;;11.98;5.38;;;31.00;99.90;;;;;;5052352;28;20076;-67
2022/02/01 05:04:07;;;;;;;8.98;5.07;;;31.00;99.90;;;;;;5051964;28;20044;-67
2022/02/01 05:06:36;;;;;;;10.88;4.90;;;30.90;99.90;;;;;;5049757;28;20056;-67
2022/02/01 05:09:05;;;;;;;13.45;5.65;;;30.60;99.90;;;;;;5041877;28;20084;-67
2022/02/01 05:11:36;;;;;;;9.05;5.53;;;30.40;99.90;;;;;;5047743;28;20499;-67
2022/02/01 05:19:56;;;;;;;9.77;5.18;;;30.10;99.90;;;;;;5046831;28;20040;-67
2022/02/01 05:22:16;;;;;;;10.60;5.20;;;30.10;99.90;;;;;;5046774;28;20041;-66
2022/02/01 05:24:45;;;;;;;13.68;5.97;;;29.90;99.90;;;;;;5045602;28;20119;-67
2022/02/01 05:27:13;;;;;;;8.70;5.82;;;29.80;99.90;;;;;;5043321;28;20524;-67
2022/02/01 05:29:42;;;;;;;13.00;6.32;;;29.70;99.90;;;;;;5047934;28;20021;-66
2022/02/01 05:32:32;;;;;;;15.52;6.00;;;29.60;99.90;;;;;;5049366;28;20028;-66
2022/02/01 05:34:58;;;;;;;14.48;7.00;;;29.50;99.90;;;;;;5044906;28;20056;-66
2022/02/01 05:37:26;;;;;;;8.50;6.78;;;29.30;99.90;;;;;;5045781;28;20513;-66
2022/02/01 05:39:53;;;;;;;9.38;7.50;;;29.20;99.90;;;;;;5032058;28;20108;-67
2022/02/01 05:42:26;;;;;;;11.75;7.07;;;29.10;99.90;;;;;;5041810;28;20109;-66
2022/02/01 05:44:54;;;;;;;12.57;6.47;;;28.90;99.90;;;;;;5037855;28;20081;-67
2022/02/01 05:47:21;;;;;;;8.82;6.18;;;28.80;99.90;;;;;;5042796;28;20055;-65
2022/02/01 05:49:52;;;;;;;14.30;7.13;;;28.80;99.90;;;;;;5045207;28;20029;-65
2022/02/01 05:52:19;;;;;;;10.18;7.00;;;28.70;99.90;;;;;;5049523;28;20111;-65
2022/02/01 05:54:47;;;;;;;12.75;7.50;;;28.70;99.90;;;;;;5049517;28;20366;-65
2022/02/01 05:57:14;;;;;;;15.32;8.98;;;28.60;99.90;;;;;;5048459;28;20017;-65
2022/02/01 05:59:41;;;;;;;18.88;10.57;;;28.50;99.90;;;;;;5050852;28;20029;-65
2022/02/01 06:02:09;;;;;;;16.17;10.52;;;28.50;99.90;;;;;;5047296;28;20029;-65
2022/02/01 06:04:37;;;;;;;19.63;11.10;;;28.40;99.90;;;;;;5050230;28;20064;-65
2022/02/01 06:07:04;;;;;;;15.90;10.15;;;28.20;99.90;;;;;;5046763;28;20559;-65
2022/02/01 06:09:31;;;;;;;18.85;11.63;;;27.90;99.90;;;;;;5055503;28;20032;-65
2022/02/01 06:11:59;;;;;;;20.60;13.27;;;27.60;99.90;;;;;;5049241;28;20032;-66
2022/02/01 06:14:26;;;;;;;18.15;12.43;;;27.30;99.90;;;;;;5054947;28;20115;-66
2022/02/01 06:16:53;;;;;;;18.83;11.88;;;27.00;99.90;;;;;;5049818;28;20029;-66
2022/02/01 06:19:20;;;;;;;20.00;12.82;;;26.90;99.90;;;;;;5044821;28;20040;-66
2022/02/01 06:21:48;;;;;;;13.95;11.60;;;26.90;99.90;;;;;;5052966;28;20442;-65
2022/02/01 06:24:18;;;;;;;13.30;10.45;;;26.90;99.90;;;;;;5054248;28;20420;-66
2022/02/01 06:26:46;;;;;;;12.50;10.73;;;27.00;99.90;;;;;;5049500;28;20048;-66
2022/02/01 06:29:14;;;;;;;17.90;11.45;;;27.10;99.90;;;;;;5051258;28;20040;-66
2022/02/01 06:31:42;;;;;;;16.70;10.15;;;27.20;99.90;;;;;;5049357;28;20032;-66
2022/02/01 06:34:10;;;;;;;13.63;10.60;;;27.10;99.90;;;;;;5050787;28;20037;-66
2022/02/01 06:36:37;;;;;;;18.73;13.27;;;27.10;99.90;;;;;;5053492;28;20045;-67
2022/02/01 06:39:09;;;;;;;16.75;11.65;;;27.00;99.90;;;;;;5048721;28;20025;-67
2022/02/01 06:41:37;;;;;;;16.95;12.10;;;26.90;99.90;;;;;;5048901;28;20022;-67
2022/02/01 06:44:07;;;;;;;18.67;12.35;;;27.00;99.90;;;;;;5051493;28;20043;-66
2022/02/01 06:46:35;;;;;;;17.75;12.50;;;26.90;99.90;;;;;;5052368;28;20072;-65
2022/02/01 06:49:05;;;;;;;19.80;11.00;;;26.90;99.90;;;;;;5044533;28;20099;-66
2022/02/01 06:51:32;;;;;;;13.60;9.27;;;26.80;99.90;;;;;;5049962;28;20029;-66
2022/02/01 06:54:01;;;;;;;16.77;8.25;;;26.60;99.90;;;;;;5049898;28;20060;-66
2022/02/01 06:56:33;;;;;;;10.52;8.55;;;26.60;99.90;;;;;;5051555;28;20123;-65
2022/02/01 06:59:01;;;;;;;13.88;9.00;;;26.80;99.90;;;;;;5049353;28;20029;-65
2022/02/01 07:01:29;;;;;;;11.63;8.32;;;26.80;99.90;;;;;;5052818;28;20017;-65
2022/02/01 07:03:57;;;;;;;10.23;7.53;;;26.70;99.90;;;;;;5052338;28;20533;-65
2022/02/01 07:06:25;;;;;;;11.77;6.30;;;26.70;99.90;;;;;;5047971;28;20029;-65
2022/02/01 07:08:53;;;;;;;9.27;5.40;;;26.60;99.90;;;;;;5039233;28;20029;-66
2022/02/01 07:11:21;;;;;;;7.63;5.63;;;26.60;99.90;;;;;;5049604;28;20064;-66
2022/02/01 07:13:50;;;;;;;7.10;5.47;;;26.60;99.90;;;;;;5052923;28;20048;-66
2022/02/01 07:16:18;;;;;;;7.00;4.78;;;26.50;99.90;;;;;;5046654;28;20029;-65
2022/02/01 07:18:46;;;;;;;8.93;4.95;;;26.50;99.90;;;;;;5063587;28;20028;-65
2022/02/01 07:21:16;;;;;;;7.45;4.55;;;26.50;99.90;;;;;;5059486;28;20116;-65
2022/02/01 07:23:43;;;;;;;11.80;5.15;;;26.50;99.90;;;;;;5056064;28;20037;-65
2022/02/01 07:26:11;;;;;;;10.25;5.15;;;26.40;99.90;;;;;;5061529;28;20048;-65
2022/02/01 07:28:38;;;;;;;7.47;4.85;;;26.40;99.90;;;;;;5066890;28;20033;-64
2022/02/01 07:31:08;;;;;;;6.55;4.85;;;26.40;99.90;;;;;;5062874;28;20116;-65
2022/02/01 07:33:37;;;;;;;6.60;4.68;;;26.40;99.90;;;;;;5059309;28;20045;-65
2022/02/01 07:36:06;;;;;;;7.72;4.70;;;26.30;99.90;;;;;;5055506;28;20040;-66
2022/02/01 07:38:33;;;;;;;7.85;4.22;;;26.30;99.90;;;;;;5051576;28;20393;-66
2022/02/01 07:41:01;;;;;;;7.85;4.95;;;26.20;99.90;;;;;;5053925;28;20032;-66
2022/02/01 07:43:33;;;;;;;8.27;5.28;;;26.10;99.90;;;;;;5054428;28;20401;-66
2022/02/01 07:46:05;;;;;;;7.97;5.53;;;25.80;99.90;;;;;;5050677;28;20029;-66
2022/02/01 07:48:33;;;;;;;8.52;5.70;;;25.60;99.90;;;;;;5056651;28;20435;-66
2022/02/01 07:51:00;;;;;;;12.65;6.43;;;25.40;99.90;;;;;;5053955;28;20028;-66
2022/02/01 07:53:28;;;;;;;7.07;5.30;;;25.30;99.90;;;;;;5053833;28;20044;-66
2022/02/01 07:55:56;;;;;;;10.95;5.72;;;25.20;99.90;;;;;;5055410;28;20017;-66
2022/02/01 07:58:23;;;;;;;6.57;5.45;;;25.20;99.90;;;;;;5055593;28;20026;-66
2022/02/01 08:00:50;;;;;;;8.88;5.30;;;25.20;99.90;;;;;;5048340;28;20021;-66
2022/02/01 08:03:17;;;;;;;10.60;5.15;;;25.20;99.90;;;;;;5048502;28;20508;-66
2022/02/01 08:05:45;;;;;;;7.13;5.32;;;25.10;99.90;;;;;;5056690;28;20032;-66
2022/02/01 08:08:13;;;;;;;8.75;6.18;;;25.00;99.90;;;;;;5054913;28;20036;-67
2022/02/01 08:10:47;;;;;;;7.70;6.03;;;24.90;99.90;;;;;;5052988;28;20032;-67
2022/02/01 08:14:45;;;;;;;10.10;6.20;;;25.00;99.90;;;;;;5050749;28;20048;-67
2022/02/01 08:16:49;;;;;;;10.32;6.38;;;24.80;99.90;;;;;;5039490;28;20116;-67
2022/02/01 08:21:29;;;;;;;12.70;6.47;;;24.80;99.90;;;;;;5052408;28;20029;-67
2022/02/01 08:23:57;;;;;;;10.77;7.95;;;24.70;99.90;;;;;;5048202;28;20178;-67
2022/02/01 08:26:27;;;;;;;10.32;7.13;;;24.80;99.90;;;;;;5049302;28;20071;-66
2022/02/01 08:28:54;;;;;;;8.65;7.20;;;24.70;99.90;;;;;;5052543;28;20107;-67
2022/02/01 08:31:22;;;;;;;10.35;7.07;;;24.70;99.90;;;;;;5061900;28;20389;-65
2022/02/01 08:33:49;;;;;;;9.55;7.68;;;24.80;99.90;;;;;;5057010;28;20108;-66
2022/02/01 08:36:16;;;;;;;9.07;7.45;;;24.90;99.90;;;;;;5049512;28;20474;-66
2022/02/01 08:38:44;;;;;;;11.80;8.98;;;24.90;99.90;;;;;;5046829;28;20018;-67
2022/02/01 08:41:12;;;;;;;11.45;7.95;;;24.90;99.90;;;;;;5039075;28;20021;-66
2022/02/01 08:43:39;;;;;;;12.02;9.35;;;25.00;99.90;;;;;;5049512;28;20551;-66
2022/02/01 08:46:06;;;;;;;11.32;8.00;;;25.00;99.90;;;;;;5051100;28;20025;-66
2022/02/01 08:48:34;;;;;;;11.65;8.88;;;25.00;99.90;;;;;;5052328;28;20037;-66
2022/02/01 08:51:06;;;;;;;11.27;8.65;;;25.00;99.90;;;;;;5046683;28;20424;-67
2022/02/01 08:53:46;;;;;;;10.75;7.97;;;25.00;99.90;;;;;;5052456;28;20086;-67
2022/02/01 08:59:01;;;;;;;12.88;8.63;;;25.10;99.90;;;;;;5019767;28;20086;-67
2022/02/01 09:01:29;;;;;;;13.13;8.55;;;25.10;99.90;;;;;;5051864;28;20021;-67
2022/02/01 09:03:56;;;;;;;10.68;9.00;;;25.10;99.90;;;;;;5045500;28;20059;-67
2022/02/01 09:06:24;;;;;;;12.77;9.25;;;25.10;99.90;;;;;;5048529;28;20028;-67
2022/02/01 09:08:52;;;;;;;11.63;9.10;;;25.10;99.90;;;;;;5044827;28;20095;-67
2022/02/01 09:11:19;;;;;;;11.65;10.48;;;25.20;99.90;;;;;;5051679;28;20017;-67
2022/02/01 09:13:49;;;;;;;11.73;10.10;;;25.20;99.90;;;;;;5051249;28;20063;-67
2022/02/01 09:16:16;;;;;;;10.43;9.35;;;25.20;99.90;;;;;;5052131;28;20053;-67
2022/02/01 09:18:44;;;;;;;12.93;10.07;;;25.20;99.90;;;;;;5053043;28;20092;-67
2022/02/01 09:21:12;;;;;;;15.27;9.95;;;25.10;99.90;;;;;;5051698;28;20043;-67
2022/02/01 09:23:39;;;;;;;11.02;8.95;;;25.10;99.90;;;;;;5047201;28;20049;-67
2022/02/01 09:26:07;;;;;;;10.90;9.23;;;25.20;99.90;;;;;;5051164;28;20017;-67
2022/02/01 09:28:34;;;;;;;10.07;8.55;;;25.20;99.90;;;;;;5051890;28;20078;-67
2022/02/01 09:31:02;;;;;;;10.05;8.90;;;25.20;99.90;;;;;;5042695;28;20477;-66
2022/02/01 09:33:30;;;;;;;9.00;8.10;;;25.20;99.90;;;;;;5050995;28;20481;-67
2022/02/01 09:35:58;;;;;;;13.80;9.43;;;25.20;99.90;;;;;;5051760;28;20026;-67
2022/02/01 09:38:30;;;;;;;11.77;9.15;;;25.20;99.90;;;;;;5052374;28;20021;-67
2022/02/01 09:40:59;;;;;;;10.70;9.07;;;25.00;99.90;;;;;;5036788;28;20103;-66
2022/02/01 09:43:27;;;;;;;12.48;8.88;;;25.00;99.90;;;;;;5051901;28;20571;-67
2022/02/01 09:45:55;;;;;;;12.27;9.15;;;25.10;99.90;;;;;;5048622;28;20033;-66
2022/02/01 09:48:23;;;;;;;10.32;8.70;;;25.10;99.90;;;;;;5039191;28;20480;-66
2022/02/01 09:50:51;;;;;;;11.07;8.90;;;25.10;99.90;;;;;;5039333;28;20114;-66
2022/02/01 09:53:19;;;;;;;11.65;9.60;;;25.20;99.90;;;;;;5051619;28;21707;-66
2022/02/01 09:55:48;;;;;;;12.45;9.40;;;25.20;99.90;;;;;;5050766;28;20025;-67
2022/02/01 09:58:15;;;;;;;11.50;8.07;;;25.20;99.90;;;;;;5045082;28;20029;-66
2022/02/01 10:00:47;;;;;;;10.43;9.07;;;25.20;99.90;;;;;;5039993;28;20489;-67
2022/02/01 10:03:20;;;;;;;12.85;9.23;;;25.30;99.90;;;;;;5039718;28;20028;-67
2022/02/01 10:06:05;;;;;;;11.57;9.07;;;25.20;99.90;;;;;;5042790;28;20060;-67
2022/02/01 10:08:33;;;;;;;13.23;9.00;;;25.30;99.90;;;;;;5039464;28;20045;-67
2022/02/01 10:11:00;;;;;;;11.43;10.20;;;25.30;99.90;;;;;;5051626;28;20033;-66
2022/02/01 10:13:29;;;;;;;12.98;9.40;;;25.30;99.90;;;;;;5045061;28;20100;-66
2022/02/01 10:16:28;;;;;;;11.73;9.13;;;25.20;99.90;;;;;;5050672;28;20420;-66
2022/02/01 10:18:48;;;;;;;10.18;8.77;;;25.20;99.90;;;;;;5050676;28;20035;-66
2022/02/01 10:21:16;;;;;;;11.15;8.02;;;25.20;99.90;;;;;;5051667;28;20025;-66
2022/02/01 10:23:46;;;;;;;10.02;9.02;;;25.20;99.90;;;;;;5038050;28;20497;-66
2022/02/01 10:26:16;;;;;;;12.52;9.63;;;25.20;99.90;;;;;;5043200;28;20025;-67
2022/02/01 10:29:18;;;;;;;9.93;8.63;;;25.30;99.90;;;;;;5051311;28;20040;-66
2022/02/01 10:31:52;;;;;;;10.38;9.18;;;25.20;99.90;;;;;;5051028;28;20083;-67
2022/02/01 10:34:39;;;;;;;11.80;9.30;;;25.20;99.90;;;;;;5049298;28;20059;-66
2022/02/01 10:37:25;;;;;;;10.70;9.15;;;25.30;99.90;;;;;;5051030;28;20609;-66
2022/02/01 10:40:05;;;;;;;11.15;9.48;;;25.30;99.90;;;;;;5038894;28;20021;-67
2022/02/01 10:42:33;;;;;;;12.52;9.43;;;25.30;99.90;;;;;;5051136;28;20025;-67
2022/02/01 10:45:01;;;;;;;11.50;8.57;;;25.30;99.90;;;;;;5045780;28;20041;-64
2022/02/01 10:47:35;;;;;;;13.98;8.63;;;25.20;99.90;;;;;;5046729;28;20044;-64
2022/02/01 10:50:07;;;;;;;11.05;9.32;;;25.20;99.90;;;;;;5049199;28;20023;-67
2022/02/01 10:52:55;;;;;;;11.57;9.48;;;25.10;99.90;;;;;;5048234;28;20033;-67
2022/02/01 10:55:23;;;;;;;12.40;9.23;;;25.10;99.90;;;;;;5044734;28;20119;-67
2022/02/01 10:57:50;;;;;;;13.93;9.05;;;25.10;99.90;;;;;;5046843;28;20029;-67
2022/02/01 11:00:19;;;;;;;12.02;8.48;;;25.10;99.90;;;;;;5048141;28;20045;-66
2022/02/01 11:02:47;;;;;;;9.75;8.55;;;25.00;99.90;;;;;;5040192;28;20057;-67
2022/02/01 11:05:19;;;;;;;9.77;8.27;;;24.90;99.90;;;;;;5049477;28;20382;-66
2022/02/01 11:07:51;;;;;;;11.95;8.68;;;24.90;99.90;;;;;;5046839;28;20064;-67
2022/02/01 11:10:18;;;;;;;11.00;7.82;;;25.00;99.90;;;;;;5050818;28;20096;-68
2022/02/01 11:12:45;;;;;;;10.10;8.27;;;25.00;99.90;;;;;;5045224;28;20053;-68
2022/02/01 11:15:24;;;;;;;11.13;7.75;;;25.00;99.90;;;;;;5044587;28;20127;-68
2022/02/01 11:17:52;;;;;;;11.68;8.93;;;25.00;99.90;;;;;;5044774;28;20021;-68
2022/02/01 11:20:31;;;;;;;10.55;8.00;;;25.00;99.90;;;;;;5046347;28;20055;-68
2022/02/01 11:23:07;;;;;;;10.27;8.18;;;25.00;99.90;;;;;;5051924;28;20025;-68
2022/02/01 11:25:54;;;;;;;11.48;7.03;;;25.00;99.90;;;;;;5050183;28;20071;-68
2022/02/01 11:31:29;;;;;;;9.90;7.30;;;24.90;99.90;;;;;;5034164;28;20037;-67
2022/02/01 11:33:57;;;;;;;9.00;6.88;;;25.00;99.90;;;;;;5047342;28;20025;-67
2022/02/01 11:36:25;;;;;;;8.93;7.22;;;25.00;99.90;;;;;;5045390;28;20139;-68
2022/02/01 11:38:58;;;;;;;9.10;7.35;;;25.00;99.90;;;;;;5053800;28;20029;-68
2022/02/01 11:41:43;;;;;;;8.93;6.43;;;24.90;99.90;;;;;;5054026;28;20017;-67
2022/02/01 11:44:29;;;;;;;9.68;7.10;;;24.90;99.90;;;;;;5053201;28;20029;-67
2022/02/01 11:47:10;;;;;;;8.48;5.75;;;24.90;99.90;;;;;;5053681;28;20017;-67
2022/02/01 11:49:54;;;;;;;7.78;6.70;;;24.90;99.90;;;;;;5054239;28;20033;-67
2022/02/01 11:52:21;;;;;;;;;;;24.90;99.90;;;;;;5038771;28;20072;-67
2022/02/01 11:54:59;;;;;;;8.45;5.88;;;24.90;99.90;;;;;;5042127;28;19911;-68
2022/02/01 11:57:29;;;;;;;10.57;7.15;;;24.80;99.90;;;;;;5042218;28;20163;-67
2022/02/01 12:00:02;;;;;;;6.93;6.10;;;24.90;99.90;;;;;;5038182;28;20020;-68
2022/02/01 12:02:41;;;;;;;8.98;6.57;;;24.90;99.90;;;;;;5050158;28;20020;-67
2022/02/01 12:05:16;;;;;;;11.02;7.43;;;24.90;99.90;;;;;;5053936;28;20029;-68
2022/02/01 12:08:14;;;;;;;8.00;6.18;;;24.90;99.90;;;;;;5038378;28;20021;-67
2022/02/01 12:10:42;;;;;;;8.45;6.18;;;24.90;99.90;;;;;;5045188;28;20048;-67
2022/02/01 12:13:12;;;;;;;10.32;6.72;;;24.90;99.90;;;;;;5054795;28;20013;-67
2022/02/01 12:15:43;;;;;;;7.00;5.72;;;24.90;99.90;;;;;;5045624;28;20088;-67
2022/02/01 12:18:20;;;;;;;5.43;4.85;;;24.90;99.90;;;;;;5046352;28;20415;-67
2022/02/01 12:21:06;;;;;;;5.53;4.72;;;24.90;99.90;;;;;;5048503;28;20029;-67
2022/02/01 12:23:37;;;;;;;5.75;4.60;;;24.90;99.90;;;;;;5044421;28;20111;-67
2022/02/01 12:26:05;;;;;;;5.22;4.72;;;24.90;99.90;;;;;;5053797;28;20151;-68
2022/02/01 12:28:34;;;;;;;6.05;4.57;;;24.90;99.90;;;;;;5053791;28;20082;-68
2022/02/01 12:31:28;;;;;;;4.80;4.20;;;24.90;99.90;;;;;;5052039;28;20044;-67
2022/02/01 12:33:56;;;;;;;;;;;24.90;99.90;;;;;;5052143;28;20557;-68
2022/02/01 12:36:36;;;;;;;9.88;5.25;;;24.90;99.90;;;;;;5051759;28;19912;-68
2022/02/01 12:39:28;;;;;;;9.18;4.85;;;24.90;99.90;;;;;;5049739;28;20024;-68
2022/02/01 12:47:07;;;;;;;6.78;4.22;;;24.90;99.90;;;;;;5052078;28;20037;-68
2022/02/01 12:49:39;;;;;;;7.68;5.13;;;24.90;99.90;;;;;;5052063;28;20024;-68
2022/02/01 12:52:17;;;;;;;6.72;4.40;;;24.90;99.90;;;;;;5045891;28;20086;-69
2022/02/01 12:54:44;;;;;;;4.85;4.35;;;24.90;99.90;;;;;;5052791;28;20044;-68
2022/02/01 12:57:15;;;;;;;7.50;4.97;;;24.90;99.90;;;;;;5051265;28;20021;-68
2022/02/01 12:59:50;;;;;;;6.47;4.82;;;24.90;99.90;;;;;;5051452;28;20412;-67
2022/02/01 13:02:22;;;;;;;7.43;4.95;;;24.90;99.90;;;;;;5046439;28;20028;-67
2022/02/01 13:05:02;;;;;;;5.15;4.40;;;25.00;99.90;;;;;;5044810;28;20023;-68
2022/02/01 13:21:01;;;;;;;5.03;4.50;;;25.00;99.90;;;;;;5040927;28;20770;-67
2022/02/01 13:23:45;;;;;;;6.78;4.80;;;25.00;99.90;;;;;;5051148;28;20033;-68
2022/02/01 13:26:15;;;;;;;6.07;4.25;;;25.00;99.90;;;;;;5052204;28;20033;-68
2022/02/01 13:28:55;;;;;;;9.02;4.90;;;25.00;99.90;;;;;;5052274;28;20086;-68
2022/02/01 13:31:26;;;;;;;5.70;5.20;;;25.00;99.90;;;;;;5052287;28;20031;-68
2022/02/01 13:34:03;;;;;;;5.45;4.47;;;25.00;99.90;;;;;;5052239;28;20074;-68
2022/02/01 13:36:32;;;;;;;5.43;4.30;;;25.00;99.90;;;;;;5051210;28;20033;-68
2022/02/01 13:39:01;;;;;;;5.70;4.50;;;25.10;99.90;;;;;;5050000;28;20032;-67
2022/02/01 13:41:33;;;;;;;7.57;5.60;;;25.10;99.90;;;;;;5052286;28;20032;-68
2022/02/01 13:44:01;;;;;;;5.43;4.70;;;25.00;99.90;;;;;;5052543;28;20469;-67
2022/02/01 13:46:33;;;;;;;11.25;5.50;;;25.00;99.90;;;;;;5052555;28;20678;-67
2022/02/01 13:49:11;;;;;;;5.60;4.13;;;25.00;99.90;;;;;;5053237;28;20032;-68
2022/02/01 13:51:50;;;;;;;5.60;4.90;;;25.00;99.90;;;;;;5052285;28;20022;-67
2022/02/01 13:54:18;;;;;;;9.00;4.95;;;25.00;99.90;;;;;;5051769;28;20032;-67
2022/02/01 13:56:48;;;;;;;10.10;4.50;;;24.90;99.90;;;;;;5052627;28;20029;-70
2022/02/01 13:59:19;;;;;;;5.70;4.03;;;24.90;99.90;;;;;;5052304;28;20025;-67
2022/02/01 14:01:47;;;;;;;6.07;4.10;;;24.90;99.90;;;;;;5052508;28;20017;-68
2022/02/01 14:04:25;;;;;;;5.22;3.90;;;24.90;99.90;;;;;;5052317;28;20021;-67
2022/02/01 14:07:37;;;;;;;7.35;4.15;;;24.90;99.90;;;;;;5052304;28;20032;-67
2022/02/01 14:26:37;;;;;;;7.25;3.75;;;25.00;99.90;;;;;;5056118;28;20099;-67
2022/02/01 14:29:07;;;;;;;4.07;3.42;;;25.10;99.90;;;;;;5056078;28;20389;-67
2022/02/01 14:34:22;;;;;;;13.77;5.70;;;25.00;99.90;;;;;;5055289;28;20036;-67
2022/02/01 14:36:55;;;;;;;16.65;5.38;;;24.90;99.90;;;;;;5055922;28;20025;-67
2022/02/01 14:44:46;;;;;;;35.78;9.10;;;24.40;99.90;;;;;;5056148;28;20040;-67
2022/02/01 14:47:24;;;;;;;33.63;10.23;;;24.20;99.90;;;;;;5055522;28;20592;-67
2022/02/01 14:49:52;;;;;;;46.40;10.38;;;23.90;99.90;;;;;;5055808;28;20028;-67
2022/02/01 14:52:20;;;;;;;42.55;11.30;;;23.70;99.90;;;;;;5056374;28;20037;-67
2022/02/01 14:54:50;;;;;;;41.35;9.68;;;23.60;99.90;;;;;;5055693;28;20082;-66
2022/02/01 15:13:49;;;;;;;42.33;10.80;;;23.20;99.90;;;;;;5035525;28;20045;-67
2022/02/01 15:16:17;;;;;;;37.67;10.52;;;23.20;99.90;;;;;;5035713;28;20024;-67
2022/02/01 15:18:45;;;;;;;37.08;10.55;;;23.10;99.90;;;;;;5035193;28;20504;-67
2022/02/01 15:21:13;;;;;;;36.28;11.18;;;23.10;99.90;;;;;;5039190;28;20474;-67
2022/02/01 15:23:42;;;;;;;43.25;10.15;;;23.00;99.90;;;;;;5054749;28;20036;-67
2022/02/01 15:26:10;;;;;;;44.28;11.18;;;22.90;99.90;;;;;;5054622;28;20025;-68
2022/02/01 15:28:37;;;;;;;41.08;10.98;;;22.90;99.90;;;;;;5053578;28;20435;-67
2022/02/01 15:31:05;;;;;;;34.00;10.40;;;22.80;99.90;;;;;;5055385;28;20049;-68
2022/02/01 15:33:33;;;;;;;37.38;11.10;;;22.80;99.90;;;;;;5055188;28;20469;-67